sensor_id;sensor_type;location;lat;lon;timestamp;P1;durP1;ratioP1;P2;durP2;ratioP2
70199;SDS011;57587;55.688;37.600;2024-02-28T00:02:04;15.70;;;5.57;;
70199;SDS011;57587;55.688;37.600;2024-02-28T00:04:31;8.63;;;4.55;;
70199;SDS011;57587;55.688;37.600;2024-02-28T00:06:59;10.47;;;5.40;;
70199;SDS011;57587;55.688;37.600;2024-02-28T00:09:26;10.65;;;5.68;;
70199;SDS011;57587;55.688;37.600;2024-02-28T00:11:53;11.52;;;6.38;;
70199;SDS011;57587;55.688;37.600;2024-02-28T00:14:20;10.85;;;4.85;;
70199;SDS011;57587;55.688;37.600;2024-02-28T00:16:47;12.98;;;4.88;;
70199;SDS011;57587;55.688;37.600;2024-02-28T00:19:14;11.90;;;5.27;;
70199;SDS011;57587;55.688;37.600;2024-02-28T00:21:43;11.02;;;5.40;;
70199;SDS011;57587;55.688;37.600;2024-02-28T00:24:11;9.38;;;4.90;;
70199;SDS011;57587;55.688;37.600;2024-02-28T00:26:41;11.35;;;5.47;;
70199;SDS011;57587;55.688;37.600;2024-02-28T00:29:09;8.05;;;4.95;;
70199;SDS011;57587;55.688;37.600;2024-02-28T00:31:37;12.03;;;4.93;;
70199;SDS011;57587;55.688;37.600;2024-02-28T00:34:04;10.07;;;4.80;;
70199;SDS011;57587;55.688;37.600;2024-02-28T00:36:31;7.95;;;5.28;;
70199;SDS011;57587;55.688;37.600;2024-02-28T00:39:14;10.45;;;5.05;;
70199;SDS011;57587;55.688;37.600;2024-02-28T00:41:41;10.70;;;5.45;;
70199;SDS011;57587;55.688;37.600;2024-02-28T00:44:08;10.33;;;5.93;;
70199;SDS011;57587;55.688;37.600;2024-02-28T00:46:36;12.85;;;6.18;;
70199;SDS011;57587;55.688;37.600;2024-02-28T00:49:03;9.10;;;5.22;;
70199;SDS011;57587;55.688;37.600;2024-02-28T00:51:30;11.85;;;5.05;;
70199;SDS011;57587;55.688;37.600;2024-02-28T00:53:57;12.35;;;5.40;;
70199;SDS011;57587;55.688;37.600;2024-02-28T00:56:24;10.57;;;4.63;;
70199;SDS011;57587;55.688;37.600;2024-02-28T00:58:53;8.35;;;5.35;;
70199;SDS011;57587;55.688;37.600;2024-02-28T01:01:20;9.68;;;4.68;;
70199;SDS011;57587;55.688;37.600;2024-02-28T01:03:48;12.15;;;5.28;;
70199;SDS011;57587;55.688;37.600;2024-02-28T01:06:15;10.10;;;5.45;;
70199;SDS011;57587;55.688;37.600;2024-02-28T01:08:43;10.10;;;5.60;;
70199;SDS011;57587;55.688;37.600;2024-02-28T01:11:10;11.13;;;4.95;;
70199;SDS011;57587;55.688;37.600;2024-02-28T01:13:37;9.43;;;5.15;;
70199;SDS011;57587;55.688;37.600;2024-02-28T01:16:04;8.05;;;4.82;;
70199;SDS011;57587;55.688;37.600;2024-02-28T01:18:32;12.20;;;4.90;;
70199;SDS011;57587;55.688;37.600;2024-02-28T01:20:59;10.43;;;5.40;;
70199;SDS011;57587;55.688;37.600;2024-02-28T01:23:26;9.48;;;5.40;;
70199;SDS011;57587;55.688;37.600;2024-02-28T01:25:53;10.25;;;4.63;;
70199;SDS011;57587;55.688;37.600;2024-02-28T01:28:20;10.77;;;5.00;;
70199;SDS011;57587;55.688;37.600;2024-02-28T01:30:48;9.18;;;4.90;;
70199;SDS011;57587;55.688;37.600;2024-02-28T01:33:15;10.23;;;4.73;;
70199;SDS011;57587;55.688;37.600;2024-02-28T01:35:43;8.30;;;4.80;;
70199;SDS011;57587;55.688;37.600;2024-02-28T01:38:10;10.00;;;4.22;;
70199;SDS011;57587;55.688;37.600;2024-02-28T01:40:37;9.73;;;4.90;;
70199;SDS011;57587;55.688;37.600;2024-02-28T01:43:06;10.07;;;5.55;;
70199;SDS011;57587;55.688;37.600;2024-02-28T01:45:34;8.33;;;4.77;;
70199;SDS011;57587;55.688;37.600;2024-02-28T01:48:02;16.25;;;5.22;;
70199;SDS011;57587;55.688;37.600;2024-02-28T01:50:32;11.20;;;5.03;;
70199;SDS011;57587;55.688;37.600;2024-02-28T01:53:00;8.40;;;4.95;;
70199;SDS011;57587;55.688;37.600;2024-02-28T01:55:28;10.18;;;5.25;;
70199;SDS011;57587;55.688;37.600;2024-02-28T01:57:55;13.30;;;5.07;;
70199;SDS011;57587;55.688;37.600;2024-02-28T02:00:22;12.07;;;6.47;;
70199;SDS011;57587;55.688;37.600;2024-02-28T02:02:52;12.13;;;5.28;;
70199;SDS011;57587;55.688;37.600;2024-02-28T02:05:19;14.40;;;5.45;;
70199;SDS011;57587;55.688;37.600;2024-02-28T02:07:50;10.43;;;4.88;;
70199;SDS011;57587;55.688;37.600;2024-02-28T02:10:18;12.17;;;4.77;;
70199;SDS011;57587;55.688;37.600;2024-02-28T02:12:45;9.95;;;5.43;;
70199;SDS011;57587;55.688;37.600;2024-02-28T02:15:12;10.63;;;4.93;;
70199;SDS011;57587;55.688;37.600;2024-02-28T02:17:40;9.55;;;4.90;;
70199;SDS011;57587;55.688;37.600;2024-02-28T02:20:08;9.77;;;4.75;;
70199;SDS011;57587;55.688;37.600;2024-02-28T02:22:37;9.20;;;5.07;;
70199;SDS011;57587;55.688;37.600;2024-02-28T02:25:07;8.65;;;4.70;;
70199;SDS011;57587;55.688;37.600;2024-02-28T02:27:34;10.73;;;5.47;;
70199;SDS011;57587;55.688;37.600;2024-02-28T02:30:02;10.43;;;4.55;;
70199;SDS011;57587;55.688;37.600;2024-02-28T02:32:30;10.75;;;4.97;;
70199;SDS011;57587;55.688;37.600;2024-02-28T02:34:57;8.53;;;4.53;;
70199;SDS011;57587;55.688;37.600;2024-02-28T02:37:24;8.65;;;4.97;;
70199;SDS011;57587;55.688;37.600;2024-02-28T02:39:51;13.88;;;6.35;;
70199;SDS011;57587;55.688;37.600;2024-02-28T02:42:20;12.43;;;5.65;;
70199;SDS011;57587;55.688;37.600;2024-02-28T02:44:47;13.32;;;5.53;;
70199;SDS011;57587;55.688;37.600;2024-02-28T02:47:14;9.60;;;4.80;;
70199;SDS011;57587;55.688;37.600;2024-02-28T02:49:41;9.98;;;5.72;;
70199;SDS011;57587;55.688;37.600;2024-02-28T02:52:08;14.88;;;5.32;;
70199;SDS011;57587;55.688;37.600;2024-02-28T02:54:36;11.13;;;5.60;;
70199;SDS011;57587;55.688;37.600;2024-02-28T02:57:03;11.15;;;5.85;;
70199;SDS011;57587;55.688;37.600;2024-02-28T02:59:30;12.70;;;5.37;;
70199;SDS011;57587;55.688;37.600;2024-02-28T03:01:58;12.32;;;5.28;;
70199;SDS011;57587;55.688;37.600;2024-02-28T03:04:25;10.35;;;5.90;;
70199;SDS011;57587;55.688;37.600;2024-02-28T03:06:52;12.45;;;5.28;;
70199;SDS011;57587;55.688;37.600;2024-02-28T03:09:23;11.73;;;5.20;;
70199;SDS011;57587;55.688;37.600;2024-02-28T03:11:51;9.30;;;5.50;;
70199;SDS011;57587;55.688;37.600;2024-02-28T03:14:18;12.10;;;5.97;;
70199;SDS011;57587;55.688;37.600;2024-02-28T03:16:47;14.45;;;5.25;;
70199;SDS011;57587;55.688;37.600;2024-02-28T03:19:15;11.43;;;5.38;;
70199;SDS011;57587;55.688;37.600;2024-02-28T03:21:43;12.77;;;5.28;;
70199;SDS011;57587;55.688;37.600;2024-02-28T03:24:13;13.03;;;6.47;;
70199;SDS011;57587;55.688;37.600;2024-02-28T03:26:47;26.25;;;12.80;;
70199;SDS011;57587;55.688;37.600;2024-02-28T04:02:15;11.60;;;4.90;;
70199;SDS011;57587;55.688;37.600;2024-02-28T04:04:42;10.23;;;4.38;;
70199;SDS011;57587;55.688;37.600;2024-02-28T04:07:10;11.00;;;5.15;;
70199;SDS011;57587;55.688;37.600;2024-02-28T04:09:37;13.35;;;5.50;;
70199;SDS011;57587;55.688;37.600;2024-02-28T04:12:04;9.90;;;5.32;;
70199;SDS011;57587;55.688;37.600;2024-02-28T04:14:32;12.23;;;5.47;;
70199;SDS011;57587;55.688;37.600;2024-02-28T04:16:59;14.38;;;6.13;;
70199;SDS011;57587;55.688;37.600;2024-02-28T04:19:26;12.93;;;5.85;;
70199;SDS011;57587;55.688;37.600;2024-02-28T04:21:53;13.00;;;6.43;;
70199;SDS011;57587;55.688;37.600;2024-02-28T04:24:20;11.43;;;6.68;;
70199;SDS011;57587;55.688;37.600;2024-02-28T04:26:47;10.93;;;5.53;;
70199;SDS011;57587;55.688;37.600;2024-02-28T04:29:14;10.32;;;5.95;;
70199;SDS011;57587;55.688;37.600;2024-02-28T04:31:41;12.93;;;6.40;;
70199;SDS011;57587;55.688;37.600;2024-02-28T04:34:08;12.80;;;6.38;;
70199;SDS011;57587;55.688;37.600;2024-02-28T04:36:36;11.82;;;5.88;;
70199;SDS011;57587;55.688;37.600;2024-02-28T04:39:03;11.63;;;6.67;;
70199;SDS011;57587;55.688;37.600;2024-02-28T04:41:32;13.82;;;6.07;;
70199;SDS011;57587;55.688;37.600;2024-02-28T04:44:00;10.32;;;6.10;;
70199;SDS011;57587;55.688;37.600;2024-02-28T04:46:27;13.23;;;6.57;;
70199;SDS011;57587;55.688;37.600;2024-02-28T04:48:54;11.88;;;6.40;;
70199;SDS011;57587;55.688;37.600;2024-02-28T04:51:22;11.23;;;5.90;;
70199;SDS011;57587;55.688;37.600;2024-02-28T04:53:49;12.18;;;5.78;;
70199;SDS011;57587;55.688;37.600;2024-02-28T04:56:16;12.32;;;5.68;;
70199;SDS011;57587;55.688;37.600;2024-02-28T04:58:44;9.18;;;6.13;;
70199;SDS011;57587;55.688;37.600;2024-02-28T05:01:14;9.77;;;6.10;;
70199;SDS011;57587;55.688;37.600;2024-02-28T05:03:44;10.00;;;6.03;;
70199;SDS011;57587;55.688;37.600;2024-02-28T05:06:11;12.30;;;5.95;;
70199;SDS011;57587;55.688;37.600;2024-02-28T05:08:38;15.90;;;6.88;;
70199;SDS011;57587;55.688;37.600;2024-02-28T05:11:05;10.13;;;6.43;;
70199;SDS011;57587;55.688;37.600;2024-02-28T05:13:32;16.27;;;8.40;;
70199;SDS011;57587;55.688;37.600;2024-02-28T05:15:59;10.57;;;6.20;;
70199;SDS011;57587;55.688;37.600;2024-02-28T05:18:27;14.05;;;5.93;;
70199;SDS011;57587;55.688;37.600;2024-02-28T05:20:54;13.18;;;5.93;;
70199;SDS011;57587;55.688;37.600;2024-02-28T05:23:21;11.35;;;6.88;;
70199;SDS011;57587;55.688;37.600;2024-02-28T05:25:49;12.55;;;5.75;;
70199;SDS011;57587;55.688;37.600;2024-02-28T05:28:17;10.33;;;5.70;;
70199;SDS011;57587;55.688;37.600;2024-02-28T05:30:44;12.15;;;6.10;;
70199;SDS011;57587;55.688;37.600;2024-02-28T05:33:15;11.45;;;5.90;;
70199;SDS011;57587;55.688;37.600;2024-02-28T05:35:42;11.43;;;6.40;;
70199;SDS011;57587;55.688;37.600;2024-02-28T05:38:09;13.63;;;5.97;;
70199;SDS011;57587;55.688;37.600;2024-02-28T05:40:36;14.07;;;6.80;;
70199;SDS011;57587;55.688;37.600;2024-02-28T05:43:03;12.32;;;6.07;;
70199;SDS011;57587;55.688;37.600;2024-02-28T05:45:31;13.13;;;6.55;;
70199;SDS011;57587;55.688;37.600;2024-02-28T05:47:58;13.23;;;7.10;;
70199;SDS011;57587;55.688;37.600;2024-02-28T05:50:25;11.55;;;6.45;;
70199;SDS011;57587;55.688;37.600;2024-02-28T05:52:52;11.23;;;6.97;;
70199;SDS011;57587;55.688;37.600;2024-02-28T05:55:20;14.07;;;6.78;;
70199;SDS011;57587;55.688;37.600;2024-02-28T05:57:50;10.50;;;6.65;;
70199;SDS011;57587;55.688;37.600;2024-02-28T06:00:18;9.73;;;5.88;;
70199;SDS011;57587;55.688;37.600;2024-02-28T06:02:45;9.40;;;6.22;;
70199;SDS011;57587;55.688;37.600;2024-02-28T06:05:12;13.07;;;6.97;;
70199;SDS011;57587;55.688;37.600;2024-02-28T06:07:39;10.95;;;6.50;;
70199;SDS011;57587;55.688;37.600;2024-02-28T06:10:06;11.32;;;6.82;;
70199;SDS011;57587;55.688;37.600;2024-02-28T06:12:34;15.27;;;6.88;;
70199;SDS011;57587;55.688;37.600;2024-02-28T06:15:02;10.75;;;7.45;;
70199;SDS011;57587;55.688;37.600;2024-02-28T06:17:30;12.70;;;6.90;;
70199;SDS011;57587;55.688;37.600;2024-02-28T06:19:57;9.82;;;7.30;;
70199;SDS011;57587;55.688;37.600;2024-02-28T06:22:24;12.25;;;7.30;;
70199;SDS011;57587;55.688;37.600;2024-02-28T06:24:51;14.15;;;7.43;;
70199;SDS011;57587;55.688;37.600;2024-02-28T06:27:19;13.00;;;7.20;;
70199;SDS011;57587;55.688;37.600;2024-02-28T06:29:46;15.77;;;7.73;;
70199;SDS011;57587;55.688;37.600;2024-02-28T06:32:14;9.55;;;6.63;;
70199;SDS011;57587;55.688;37.600;2024-02-28T06:34:41;10.38;;;7.38;;
70199;SDS011;57587;55.688;37.600;2024-02-28T06:37:09;12.48;;;7.78;;
70199;SDS011;57587;55.688;37.600;2024-02-28T06:39:36;9.88;;;7.13;;
70199;SDS011;57587;55.688;37.600;2024-02-28T06:42:03;17.42;;;7.57;;
70199;SDS011;57587;55.688;37.600;2024-02-28T06:44:30;10.95;;;7.80;;
70199;SDS011;57587;55.688;37.600;2024-02-28T06:46:57;14.27;;;7.88;;
70199;SDS011;57587;55.688;37.600;2024-02-28T06:49:24;10.35;;;8.45;;
70199;SDS011;57587;55.688;37.600;2024-02-28T06:51:52;11.63;;;7.80;;
70199;SDS011;57587;55.688;37.600;2024-02-28T06:54:20;12.57;;;8.75;;
70199;SDS011;57587;55.688;37.600;2024-02-28T06:56:48;11.35;;;7.35;;
70199;SDS011;57587;55.688;37.600;2024-02-28T06:59:15;12.40;;;8.25;;
70199;SDS011;57587;55.688;37.600;2024-02-28T07:01:42;11.15;;;7.63;;
70199;SDS011;57587;55.688;37.600;2024-02-28T07:04:09;11.20;;;7.70;;
70199;SDS011;57587;55.688;37.600;2024-02-28T07:06:37;13.88;;;8.48;;
70199;SDS011;57587;55.688;37.600;2024-02-28T07:09:04;13.80;;;8.07;;
70199;SDS011;57587;55.688;37.600;2024-02-28T07:11:31;15.27;;;8.30;;
70199;SDS011;57587;55.688;37.600;2024-02-28T07:13:58;11.00;;;7.28;;
70199;SDS011;57587;55.688;37.600;2024-02-28T07:16:29;11.27;;;8.18;;
70199;SDS011;57587;55.688;37.600;2024-02-28T07:18:56;13.07;;;8.07;;
70199;SDS011;57587;55.688;37.600;2024-02-28T07:21:23;14.77;;;7.85;;
70199;SDS011;57587;55.688;37.600;2024-02-28T07:23:50;11.20;;;7.88;;
70199;SDS011;57587;55.688;37.600;2024-02-28T07:26:18;15.25;;;8.20;;
70199;SDS011;57587;55.688;37.600;2024-02-28T07:28:53;11.35;;;7.97;;
70199;SDS011;57587;55.688;37.600;2024-02-28T07:31:20;9.98;;;7.28;;
70199;SDS011;57587;55.688;37.600;2024-02-28T07:33:47;12.53;;;7.80;;
70199;SDS011;57587;55.688;37.600;2024-02-28T07:36:15;13.32;;;7.75;;
70199;SDS011;57587;55.688;37.600;2024-02-28T07:38:42;12.68;;;8.15;;
70199;SDS011;57587;55.688;37.600;2024-02-28T07:41:09;11.30;;;7.57;;
70199;SDS011;57587;55.688;37.600;2024-02-28T07:43:36;11.52;;;7.82;;
70199;SDS011;57587;55.688;37.600;2024-02-28T07:46:07;13.70;;;7.80;;
70199;SDS011;57587;55.688;37.600;2024-02-28T07:48:36;15.18;;;7.93;;
70199;SDS011;57587;55.688;37.600;2024-02-28T07:51:07;12.57;;;8.10;;
70199;SDS011;57587;55.688;37.600;2024-02-28T07:53:34;15.02;;;8.05;;
70199;SDS011;57587;55.688;37.600;2024-02-28T07:56:02;12.52;;;7.72;;
70199;SDS011;57587;55.688;37.600;2024-02-28T07:58:29;11.53;;;7.20;;
70199;SDS011;57587;55.688;37.600;2024-02-28T08:00:56;10.27;;;7.00;;
70199;SDS011;57587;55.688;37.600;2024-02-28T08:03:24;15.95;;;8.35;;
70199;SDS011;57587;55.688;37.600;2024-02-28T08:05:51;12.00;;;7.18;;
70199;SDS011;57587;55.688;37.600;2024-02-28T08:08:18;12.38;;;7.68;;
70199;SDS011;57587;55.688;37.600;2024-02-28T08:10:45;15.63;;;8.57;;
70199;SDS011;57587;55.688;37.600;2024-02-28T08:13:13;10.70;;;7.40;;
70199;SDS011;57587;55.688;37.600;2024-02-28T08:15:40;14.63;;;7.93;;
70199;SDS011;57587;55.688;37.600;2024-02-28T08:18:07;12.40;;;7.65;;
70199;SDS011;57587;55.688;37.600;2024-02-28T08:20:34;12.60;;;7.55;;
70199;SDS011;57587;55.688;37.600;2024-02-28T08:23:02;13.33;;;7.90;;
70199;SDS011;57587;55.688;37.600;2024-02-28T08:25:31;12.82;;;7.38;;
70199;SDS011;57587;55.688;37.600;2024-02-28T08:27:58;14.45;;;7.82;;
70199;SDS011;57587;55.688;37.600;2024-02-28T08:30:26;10.90;;;7.90;;
70199;SDS011;57587;55.688;37.600;2024-02-28T08:32:53;12.82;;;8.50;;
70199;SDS011;57587;55.688;37.600;2024-02-28T08:35:20;13.70;;;7.30;;
70199;SDS011;57587;55.688;37.600;2024-02-28T08:37:49;11.85;;;7.70;;
70199;SDS011;57587;55.688;37.600;2024-02-28T08:40:17;12.25;;;7.70;;
70199;SDS011;57587;55.688;37.600;2024-02-28T08:42:44;12.65;;;7.38;;
70199;SDS011;57587;55.688;37.600;2024-02-28T08:45:13;12.05;;;7.78;;
70199;SDS011;57587;55.688;37.600;2024-02-28T08:47:40;13.73;;;8.00;;
70199;SDS011;57587;55.688;37.600;2024-02-28T08:50:08;11.32;;;7.63;;
70199;SDS011;57587;55.688;37.600;2024-02-28T08:52:35;14.52;;;7.72;;
70199;SDS011;57587;55.688;37.600;2024-02-28T08:55:06;10.70;;;7.60;;
70199;SDS011;57587;55.688;37.600;2024-02-28T08:57:33;12.70;;;8.10;;
70199;SDS011;57587;55.688;37.600;2024-02-28T09:00:01;13.90;;;7.37;;
70199;SDS011;57587;55.688;37.600;2024-02-28T09:02:29;13.45;;;7.90;;
70199;SDS011;57587;55.688;37.600;2024-02-28T09:04:56;13.63;;;7.95;;
70199;SDS011;57587;55.688;37.600;2024-02-28T09:07:23;13.10;;;7.50;;
70199;SDS011;57587;55.688;37.600;2024-02-28T09:09:50;11.85;;;8.48;;
70199;SDS011;57587;55.688;37.600;2024-02-28T09:12:18;12.60;;;8.33;;
70199;SDS011;57587;55.688;37.600;2024-02-28T09:14:45;12.75;;;7.40;;
70199;SDS011;57587;55.688;37.600;2024-02-28T09:17:12;12.90;;;7.50;;
70199;SDS011;57587;55.688;37.600;2024-02-28T09:19:39;10.75;;;7.70;;
70199;SDS011;57587;55.688;37.600;2024-02-28T09:22:06;10.88;;;7.43;;
70199;SDS011;57587;55.688;37.600;2024-02-28T09:24:33;11.60;;;7.57;;
70199;SDS011;57587;55.688;37.600;2024-02-28T09:27:03;13.57;;;7.60;;
70199;SDS011;57587;55.688;37.600;2024-02-28T09:29:30;16.08;;;7.97;;
70199;SDS011;57587;55.688;37.600;2024-02-28T09:31:57;11.05;;;7.72;;
70199;SDS011;57587;55.688;37.600;2024-02-28T09:34:24;13.52;;;8.20;;
70199;SDS011;57587;55.688;37.600;2024-02-28T09:36:51;13.23;;;8.70;;
70199;SDS011;57587;55.688;37.600;2024-02-28T09:39:19;15.23;;;7.88;;
70199;SDS011;57587;55.688;37.600;2024-02-28T09:41:47;14.25;;;8.10;;
70199;SDS011;57587;55.688;37.600;2024-02-28T09:44:16;12.63;;;7.35;;
70199;SDS011;57587;55.688;37.600;2024-02-28T09:46:44;14.50;;;8.10;;
70199;SDS011;57587;55.688;37.600;2024-02-28T09:49:12;14.70;;;8.00;;
70199;SDS011;57587;55.688;37.600;2024-02-28T09:51:41;14.70;;;8.32;;
70199;SDS011;57587;55.688;37.600;2024-02-28T09:54:10;13.57;;;8.20;;
70199;SDS011;57587;55.688;37.600;2024-02-28T09:56:37;13.70;;;8.82;;
70199;SDS011;57587;55.688;37.600;2024-02-28T09:59:04;15.10;;;8.10;;
70199;SDS011;57587;55.688;37.600;2024-02-28T10:01:34;14.07;;;8.30;;
70199;SDS011;57587;55.688;37.600;2024-02-28T10:04:09;14.68;;;8.07;;
70199;SDS011;57587;55.688;37.600;2024-02-28T10:06:39;13.30;;;7.80;;
70199;SDS011;57587;55.688;37.600;2024-02-28T10:09:08;13.52;;;7.93;;
70199;SDS011;57587;55.688;37.600;2024-02-28T10:11:37;13.98;;;8.20;;
70199;SDS011;57587;55.688;37.600;2024-02-28T10:14:04;14.33;;;8.73;;
70199;SDS011;57587;55.688;37.600;2024-02-28T10:16:32;13.85;;;7.97;;
70199;SDS011;57587;55.688;37.600;2024-02-28T10:18:59;14.07;;;8.18;;
70199;SDS011;57587;55.688;37.600;2024-02-28T10:21:26;13.70;;;7.60;;
70199;SDS011;57587;55.688;37.600;2024-02-28T10:23:53;13.90;;;7.80;;
70199;SDS011;57587;55.688;37.600;2024-02-28T10:26:29;13.83;;;8.40;;
70199;SDS011;57587;55.688;37.600;2024-02-28T10:28:59;14.73;;;7.80;;
70199;SDS011;57587;55.688;37.600;2024-02-28T10:31:26;14.57;;;7.75;;
70199;SDS011;57587;55.688;37.600;2024-02-28T10:33:53;14.38;;;7.65;;
70199;SDS011;57587;55.688;37.600;2024-02-28T10:36:20;15.18;;;7.88;;
70199;SDS011;57587;55.688;37.600;2024-02-28T10:38:48;16.25;;;8.15;;
70199;SDS011;57587;55.688;37.600;2024-02-28T10:41:15;15.18;;;8.23;;
70199;SDS011;57587;55.688;37.600;2024-02-28T10:43:43;16.00;;;8.15;;
70199;SDS011;57587;55.688;37.600;2024-02-28T10:46:10;15.63;;;9.00;;
70199;SDS011;57587;55.688;37.600;2024-02-28T10:49:01;12.27;;;7.63;;
70199;SDS011;57587;55.688;37.600;2024-02-28T10:51:28;14.80;;;8.40;;
70199;SDS011;57587;55.688;37.600;2024-02-28T10:56:39;16.83;;;9.05;;
70199;SDS011;57587;55.688;37.600;2024-02-28T10:59:09;15.93;;;7.75;;
70199;SDS011;57587;55.688;37.600;2024-02-28T11:01:42;17.23;;;8.25;;
70199;SDS011;57587;55.688;37.600;2024-02-28T11:04:15;15.40;;;8.40;;
70199;SDS011;57587;55.688;37.600;2024-02-28T11:06:51;15.13;;;8.48;;
70199;SDS011;57587;55.688;37.600;2024-02-28T11:09:20;17.42;;;7.70;;
70199;SDS011;57587;55.688;37.600;2024-02-28T11:11:52;16.20;;;8.30;;
70199;SDS011;57587;55.688;37.600;2024-02-28T11:14:21;14.20;;;8.52;;
70199;SDS011;57587;55.688;37.600;2024-02-28T11:17:00;14.35;;;7.63;;
70199;SDS011;57587;55.688;37.600;2024-02-28T11:19:29;15.55;;;8.13;;
70199;SDS011;57587;55.688;37.600;2024-02-28T11:21:58;14.95;;;8.57;;
70199;SDS011;57587;55.688;37.600;2024-02-28T11:24:30;14.85;;;8.43;;
70199;SDS011;57587;55.688;37.600;2024-02-28T11:26:58;16.97;;;7.97;;
70199;SDS011;57587;55.688;37.600;2024-02-28T11:29:26;21.27;;;11.30;;
70199;SDS011;57587;55.688;37.600;2024-02-28T11:31:55;22.33;;;9.25;;
70199;SDS011;57587;55.688;37.600;2024-02-28T11:34:22;16.23;;;8.75;;
70199;SDS011;57587;55.688;37.600;2024-02-28T11:36:50;18.45;;;8.02;;
70199;SDS011;57587;55.688;37.600;2024-02-28T11:39:18;17.27;;;8.23;;
70199;SDS011;57587;55.688;37.600;2024-02-28T11:41:48;16.90;;;8.55;;
70199;SDS011;57587;55.688;37.600;2024-02-28T11:44:16;20.35;;;8.43;;
70199;SDS011;57587;55.688;37.600;2024-02-28T11:46:45;18.02;;;7.82;;
70199;SDS011;57587;55.688;37.600;2024-02-28T11:49:13;17.35;;;8.38;;
70199;SDS011;57587;55.688;37.600;2024-02-28T11:51:41;18.87;;;7.90;;
70199;SDS011;57587;55.688;37.600;2024-02-28T11:54:12;16.13;;;7.40;;
70199;SDS011;57587;55.688;37.600;2024-02-28T11:56:39;14.30;;;7.10;;
70199;SDS011;57587;55.688;37.600;2024-02-28T11:59:08;18.63;;;7.45;;
70199;SDS011;57587;55.688;37.600;2024-02-28T12:01:40;13.75;;;7.47;;
70199;SDS011;57587;55.688;37.600;2024-02-28T12:04:08;13.97;;;7.63;;
70199;SDS011;57587;55.688;37.600;2024-02-28T12:06:37;13.40;;;6.80;;
70199;SDS011;57587;55.688;37.600;2024-02-28T12:09:08;13.25;;;7.15;;
70199;SDS011;57587;55.688;37.600;2024-02-28T12:11:37;15.25;;;7.32;;
70199;SDS011;57587;55.688;37.600;2024-02-28T12:14:06;14.40;;;6.80;;
70199;SDS011;57587;55.688;37.600;2024-02-28T12:16:36;19.30;;;7.47;;
70199;SDS011;57587;55.688;37.600;2024-02-28T12:19:10;16.10;;;7.57;;
70199;SDS011;57587;55.688;37.600;2024-02-28T12:21:38;18.52;;;7.68;;
70199;SDS011;57587;55.688;37.600;2024-02-28T12:24:07;15.07;;;7.70;;
70199;SDS011;57587;55.688;37.600;2024-02-28T12:26:35;18.25;;;7.93;;
70199;SDS011;57587;55.688;37.600;2024-02-28T12:29:03;17.07;;;7.87;;
70199;SDS011;57587;55.688;37.600;2024-02-28T12:31:30;16.00;;;8.48;;
70199;SDS011;57587;55.688;37.600;2024-02-28T12:33:58;16.60;;;7.63;;
70199;SDS011;57587;55.688;37.600;2024-02-28T12:36:25;17.17;;;8.52;;
70199;SDS011;57587;55.688;37.600;2024-02-28T12:38:53;16.48;;;8.05;;
70199;SDS011;57587;55.688;37.600;2024-02-28T12:41:20;14.37;;;7.87;;
70199;SDS011;57587;55.688;37.600;2024-02-28T12:43:51;19.33;;;8.80;;
70199;SDS011;57587;55.688;37.600;2024-02-28T12:46:18;17.20;;;8.48;;
70199;SDS011;57587;55.688;37.600;2024-02-28T12:48:45;17.33;;;8.50;;
70199;SDS011;57587;55.688;37.600;2024-02-28T12:51:20;16.00;;;8.18;;
70199;SDS011;57587;55.688;37.600;2024-02-28T12:54:04;15.77;;;9.00;;
70199;SDS011;57587;55.688;37.600;2024-02-28T12:56:31;17.88;;;8.07;;
70199;SDS011;57587;55.688;37.600;2024-02-28T12:58:58;22.35;;;10.18;;
70199;SDS011;57587;55.688;37.600;2024-02-28T13:01:26;14.25;;;7.55;;
70199;SDS011;57587;55.688;37.600;2024-02-28T13:03:54;13.27;;;7.15;;
70199;SDS011;57587;55.688;37.600;2024-02-28T13:06:22;18.50;;;7.93;;
70199;SDS011;57587;55.688;37.600;2024-02-28T13:08:49;10.85;;;6.82;;
70199;SDS011;57587;55.688;37.600;2024-02-28T13:11:20;16.38;;;8.30;;
70199;SDS011;57587;55.688;37.600;2024-02-28T13:13:51;13.65;;;7.22;;
70199;SDS011;57587;55.688;37.600;2024-02-28T13:16:19;13.55;;;8.35;;
70199;SDS011;57587;55.688;37.600;2024-02-28T13:18:48;15.53;;;7.17;;
70199;SDS011;57587;55.688;37.600;2024-02-28T13:21:18;16.17;;;7.85;;
70199;SDS011;57587;55.688;37.600;2024-02-28T13:23:46;17.08;;;7.85;;
70199;SDS011;57587;55.688;37.600;2024-02-28T13:26:14;15.48;;;7.03;;
70199;SDS011;57587;55.688;37.600;2024-02-28T13:28:46;17.27;;;7.60;;
70199;SDS011;57587;55.688;37.600;2024-02-28T13:31:20;17.60;;;7.73;;
70199;SDS011;57587;55.688;37.600;2024-02-28T13:33:47;18.65;;;7.28;;
70199;SDS011;57587;55.688;37.600;2024-02-28T13:36:16;15.05;;;7.65;;
70199;SDS011;57587;55.688;37.600;2024-02-28T13:38:43;19.65;;;7.72;;
70199;SDS011;57587;55.688;37.600;2024-02-28T13:41:10;12.23;;;6.93;;
70199;SDS011;57587;55.688;37.600;2024-02-28T13:43:38;15.57;;;7.33;;
70199;SDS011;57587;55.688;37.600;2024-02-28T13:46:05;12.45;;;6.95;;
70199;SDS011;57587;55.688;37.600;2024-02-28T13:48:32;17.60;;;7.80;;
70199;SDS011;57587;55.688;37.600;2024-02-28T13:51:02;15.70;;;7.53;;
70199;SDS011;57587;55.688;37.600;2024-02-28T13:53:31;14.43;;;7.40;;
70199;SDS011;57587;55.688;37.600;2024-02-28T13:55:58;14.27;;;7.27;;
70199;SDS011;57587;55.688;37.600;2024-02-28T13:58:25;13.02;;;7.07;;
70199;SDS011;57587;55.688;37.600;2024-02-28T14:01:01;15.85;;;7.10;;
70199;SDS011;57587;55.688;37.600;2024-02-28T14:03:29;15.27;;;7.72;;
70199;SDS011;57587;55.688;37.600;2024-02-28T14:05:56;14.60;;;7.90;;
70199;SDS011;57587;55.688;37.600;2024-02-28T14:08:26;16.50;;;7.43;;
70199;SDS011;57587;55.688;37.600;2024-02-28T14:11:00;17.42;;;8.10;;
70199;SDS011;57587;55.688;37.600;2024-02-28T14:13:27;13.38;;;8.55;;
70199;SDS011;57587;55.688;37.600;2024-02-28T14:15:57;13.20;;;7.50;;
70199;SDS011;57587;55.688;37.600;2024-02-28T14:18:39;18.73;;;7.90;;
70199;SDS011;57587;55.688;37.600;2024-02-28T14:21:06;15.17;;;8.17;;
70199;SDS011;57587;55.688;37.600;2024-02-28T14:23:34;13.75;;;7.95;;
70199;SDS011;57587;55.688;37.600;2024-02-28T14:26:01;18.08;;;9.45;;
70199;SDS011;57587;55.688;37.600;2024-02-28T14:28:28;18.85;;;8.90;;
70199;SDS011;57587;55.688;37.600;2024-02-28T14:30:55;16.70;;;7.68;;
70199;SDS011;57587;55.688;37.600;2024-02-28T14:33:25;16.77;;;8.83;;
70199;SDS011;57587;55.688;37.600;2024-02-28T14:35:54;17.15;;;9.05;;
70199;SDS011;57587;55.688;37.600;2024-02-28T14:38:22;17.13;;;9.02;;
70199;SDS011;57587;55.688;37.600;2024-02-28T14:40:49;19.20;;;8.50;;
70199;SDS011;57587;55.688;37.600;2024-02-28T14:43:16;19.67;;;9.50;;
70199;SDS011;57587;55.688;37.600;2024-02-28T14:45:44;15.67;;;7.77;;
70199;SDS011;57587;55.688;37.600;2024-02-28T14:48:13;18.95;;;8.20;;
70199;SDS011;57587;55.688;37.600;2024-02-28T14:50:40;18.88;;;8.15;;
70199;SDS011;57587;55.688;37.600;2024-02-28T14:53:10;22.23;;;8.13;;
70199;SDS011;57587;55.688;37.600;2024-02-28T14:55:38;20.27;;;8.43;;
70199;SDS011;57587;55.688;37.600;2024-02-28T14:58:12;14.90;;;8.20;;
70199;SDS011;57587;55.688;37.600;2024-02-28T15:00:39;16.10;;;8.02;;
70199;SDS011;57587;55.688;37.600;2024-02-28T15:03:07;13.68;;;7.75;;
70199;SDS011;57587;55.688;37.600;2024-02-28T15:05:37;16.48;;;7.78;;